No data was retrieved for https://query.yahooapis.com/v1/public/yql?q=select+%2A+from+weather.forecast+where+woeid%3D860853&format=xml&u=c



Visit our other weather sites:

Template documentation
and downloads

And another site



Nearby METAR Reports

   
EBAW - Antwerp
Updated: 24-06-2021 14:20
Mostly Cloudy  
Mostly Cloudy  
   Wind: NNW 3.1 m/s
Wind: NNW 3.1 m/s
Temperature: 18°C
Dew Point: 11°C
Humidity: 64%
Barometer: 1021 hPa
Clouds: Mostly Cloudy
Visibility: More than 10 km
Cloud details: Partly Cloudy 3500 ft,
Mostly Cloudy 4300 ft
EBAW 241220Z 33006KT 300V360 9999 SCT035 BKN043 18/11 Q1021 NOSIG
EBLG - Liège
Updated: 24-06-2021 14:20
Mostly Cloudy  
Mostly Cloudy  
   Wind: North 3.6 m/s
Wind: North 3.6 m/s
Temperature: 17°C
Dew Point: 13°C
Humidity: 77%
Barometer: 1020 hPa
Clouds: Mostly Cloudy
Visibility: More than 10 km
Cloud details: Partly Cloudy 1600 ft,
Mostly Cloudy 2200 ft
EBLG 241220Z 35007KT 320V040 9999 SCT016 BKN022 17/13 Q1020 NOSIG
EBCV - Mons/Bergen
Updated: 24-06-2021 14:25
Overcast  
Overcast  
   Wind: NNW 3.1 m/s
Wind: NNW 3.1 m/s
Temperature: 17°C
Dew Point: 12°C
Humidity: 73%
Barometer: 1021 hPa
Clouds: Overcast
Visibility: 8 km
Cloud details: Overcast 2400 ft
EBCV 241225Z AUTO 34006KT 8000 OVC024/// 17/12 Q1021 WHT
EHBK - Maastricht
Updated: 24-06-2021 14:25
Partly Cloudy  
Partly Cloudy  
   Wind: North 4.1 m/s
Wind: North 4.1 m/s
Temperature: 19°C
Dew Point: 14°C
Humidity: 73%
Barometer: 1019 hPa
Clouds: Partly Cloudy
Visibility: More than 10 km
Cloud details: Few Clouds 2200 ft,
Partly Cloudy 2600 ft
EHBK 241225Z AUTO 35008KT 310V040 9999 FEW022 SCT026 19/14 Q1019 NOSIG
ELLX - Luxemburg
Updated: 24-06-2021 14:20
Rain, Mostly Cloudy  
Rain, Mostly Cloudy  
   Wind: NNE 2.6 m/s
Wind: NNE 2.6 m/s
Temperature: 15°C
Dew Point: 14°C
Humidity: 94%
Barometer: 1019 hPa
Clouds: Mostly Cloudy
Visibility: 6 km
Cloud details: Partly Cloudy 600 ft,
Mostly Cloudy 900 ft
ELLX 241220Z 03005KT 6000 RA SCT006 BKN009 15/14 Q1019 TEMPO 3000 BKN007
EBOS - Oostende
Updated: 24-06-2021 14:20
Few Clouds  
Few Clouds  
   Wind: NNW 3.6 m/s
Wind: NNW 3.6 m/s
Temperature: 16°C
Dew Point: 11°C
Humidity: 72%
Barometer: 1022 hPa
Clouds: Few Clouds
Visibility: More than 10 km
Cloud details: Few Clouds 1800 ft
EBOS 241220Z 34007KT 300V030 9999 FEW018 16/11 Q1022 NOSIG

Script developed by  Saratoga-weather.org Adapted for the template by  Weerstation Leuven

You find our weather info also at:

Weather Underground

Equipment we use:

Weather-station
Davis Vantage Vue

Weather-program
WeatherCat

Provider
one.com

Davis Vantage Vue

WeatherCat

one.com